Time;durP1;ratioP1;P1;durP2;ratioP2;P2;SDS_P1;SDS_P2;PMS_P1;PMS_P2;Temp;Humidity;BMP_temperature;BMP_pressure;BME280_temperature;BME280_humidity;BME280_pressure;Samples;Min_cycle;Max_cycle;Signal;HPM_P1;HPM_P2
2023/09/13 00:00:47;;;;;;;8.45;4.97;;;10.00;99.90;;;;;;5071173;28;20038;-78
2023/09/13 00:03:13;;;;;;;10.20;5.13;;;9.90;99.90;;;;;;5090147;28;20123;-78
2023/09/13 00:05:42;;;;;;;6.47;4.82;;;9.90;99.90;;;;;;5089412;28;20553;-78
2023/09/13 00:08:08;;;;;;;7.65;5.25;;;9.90;99.90;;;;;;5093347;28;20055;-78
2023/09/13 00:10:34;;;;;;;9.95;6.05;;;9.90;99.90;;;;;;5093403;28;20399;-78
2023/09/13 00:13:00;;;;;;;9.88;5.88;;;9.90;99.90;;;;;;5093315;28;20036;-78
2023/09/13 00:15:25;;;;;;;9.32;5.40;;;9.90;99.90;;;;;;5093388;28;20101;-78
2023/09/13 00:17:51;;;;;;;7.95;5.22;;;10.00;99.90;;;;;;5094270;28;20140;-78
2023/09/13 00:20:17;;;;;;;11.00;5.60;;;10.00;99.90;;;;;;5093816;28;20077;-78
2023/09/13 00:22:45;;;;;;;6.90;4.97;;;9.90;99.90;;;;;;5093429;28;20228;-77
2023/09/13 00:25:11;;;;;;;11.07;5.05;;;9.90;99.90;;;;;;5094138;28;20024;-78
2023/09/13 00:27:36;;;;;;;7.45;5.40;;;9.80;99.90;;;;;;5093309;28;20027;-77
2023/09/13 00:30:02;;;;;;;10.15;5.50;;;9.70;99.90;;;;;;5093579;28;20099;-79
2023/09/13 00:32:28;;;;;;;9.05;4.95;;;9.60;99.90;;;;;;5093582;28;20060;-77
2023/09/13 00:34:54;;;;;;;10.50;5.28;;;9.60;99.90;;;;;;5075376;28;20423;-79
2023/09/13 00:37:19;;;;;;;11.05;4.95;;;9.60;99.90;;;;;;5093773;28;20384;-79
2023/09/13 00:39:45;;;;;;;8.80;4.63;;;9.60;99.90;;;;;;5093156;28;20034;-79
2023/09/13 00:42:11;;;;;;;11.32;4.75;;;9.50;99.90;;;;;;5075454;28;20128;-78
2023/09/13 00:44:36;;;;;;;11.05;5.05;;;9.50;99.90;;;;;;5093444;28;20035;-78
2023/09/13 00:47:02;;;;;;;7.32;4.82;;;9.50;99.90;;;;;;5093315;28;20048;-78
2023/09/13 00:49:28;;;;;;;10.73;5.03;;;9.50;99.90;;;;;;5092826;28;20060;-78
2023/09/13 00:51:57;;;;;;;10.68;5.20;;;9.50;99.90;;;;;;5093287;28;20469;-78
2023/09/13 00:54:23;;;;;;;6.40;4.57;;;9.50;99.90;;;;;;5093274;28;20469;-78
2023/09/13 00:56:49;;;;;;;9.27;5.20;;;9.50;99.90;;;;;;5092680;28;20564;-78
2023/09/13 00:59:15;;;;;;;7.53;5.43;;;9.40;99.90;;;;;;5093099;28;20142;-78
2023/09/13 01:01:41;;;;;;;8.80;5.13;;;9.40;99.90;;;;;;5092436;28;20069;-78
2023/09/13 01:04:07;;;;;;;9.13;4.82;;;9.40;99.90;;;;;;5092937;28;20384;-78
2023/09/13 01:06:36;;;;;;;9.50;4.60;;;9.40;99.90;;;;;;5092016;28;20031;-79
2023/09/13 01:09:04;;;;;;;7.38;5.40;;;9.40;99.90;;;;;;5074977;28;20028;-79
2023/09/13 01:11:29;;;;;;;11.25;4.78;;;9.40;99.90;;;;;;5074592;28;20112;-78
2023/09/13 01:13:55;;;;;;;7.93;4.85;;;9.40;99.90;;;;;;5093408;28;20074;-78
2023/09/13 01:16:36;;;;;;;7.72;4.18;;;9.40;99.90;;;;;;5093517;28;20027;-79
2023/09/13 01:19:28;;;;;;;8.10;4.88;;;9.40;99.90;;;;;;5091704;28;20032;-78
2023/09/13 01:22:19;;;;;;;7.55;4.63;;;9.40;99.90;;;;;;5061049;28;20051;-79
2023/09/13 01:25:06;;;;;;;9.35;5.65;;;9.30;99.90;;;;;;5046493;28;20051;-78
2023/09/13 01:27:47;;;;;;;9.98;5.90;;;9.30;99.90;;;;;;5092074;28;20032;-78
2023/09/13 01:30:14;;;;;;;10.02;5.10;;;9.30;99.90;;;;;;5092986;28;20032;-78
2023/09/13 01:32:50;;;;;;;9.32;5.43;;;9.30;99.90;;;;;;5092161;28;20388;-78
2023/09/13 01:35:16;;;;;;;6.25;4.63;;;9.20;99.90;;;;;;5092454;28;20503;-78
2023/09/13 01:37:42;;;;;;;8.27;4.75;;;9.20;99.90;;;;;;5092336;28;20020;-77
2023/09/13 01:40:09;;;;;;;9.48;4.95;;;9.20;99.90;;;;;;5093298;28;20056;-79
2023/09/13 01:42:38;;;;;;;8.63;5.00;;;9.20;99.90;;;;;;5092444;28;20073;-77
2023/09/13 01:45:08;;;;;;;9.18;5.53;;;9.20;99.90;;;;;;5093602;28;20020;-78
2023/09/13 01:47:35;;;;;;;8.95;4.90;;;9.20;99.90;;;;;;5093990;28;20221;-78
2023/09/13 01:50:01;;;;;;;8.13;4.90;;;9.10;99.90;;;;;;5093603;28;20081;-77
2023/09/13 01:52:28;;;;;;;8.55;4.88;;;9.00;99.90;;;;;;5094504;28;20039;-78
2023/09/13 01:54:54;;;;;;;10.40;4.95;;;9.00;99.90;;;;;;5093265;28;20084;-79
2023/09/13 01:57:20;;;;;;;8.38;4.70;;;8.90;99.90;;;;;;5093043;28;20186;-78
2023/09/13 01:59:46;;;;;;;12.70;6.45;;;8.90;99.90;;;;;;5091930;28;20081;-78
2023/09/13 02:02:12;;;;;;;7.32;4.57;;;8.90;99.90;;;;;;5092183;28;20082;-79
2023/09/13 02:04:37;;;;;;;11.38;5.40;;;8.90;99.90;;;;;;5091810;28;20123;-79
2023/09/13 02:07:03;;;;;;;8.35;4.90;;;8.90;99.90;;;;;;5092783;28;20035;-78
2023/09/13 02:09:29;;;;;;;7.90;5.57;;;9.00;99.90;;;;;;5091908;28;20028;-78
2023/09/13 02:11:55;;;;;;;8.30;5.18;;;8.90;99.90;;;;;;5091715;28;20480;-78
2023/09/13 02:14:20;;;;;;;6.28;4.93;;;8.90;99.90;;;;;;5092199;28;20107;-79
2023/09/13 02:16:46;;;;;;;7.65;4.97;;;8.80;99.90;;;;;;5091074;28;20024;-79
2023/09/13 02:19:12;;;;;;;7.05;5.30;;;8.70;99.90;;;;;;5092068;28;20095;-79
2023/09/13 02:21:37;;;;;;;7.18;4.75;;;8.70;99.90;;;;;;5091199;28;20034;-78
2023/09/13 02:24:03;;;;;;;7.45;4.90;;;8.70;99.90;;;;;;5091641;28;20036;-79
2023/09/13 02:26:30;;;;;;;9.43;5.18;;;8.70;99.90;;;;;;5091682;28;20566;-79
2023/09/13 02:28:56;;;;;;;9.48;5.07;;;8.70;99.90;;;;;;5090784;28;20036;-78
2023/09/13 02:31:26;;;;;;;8.10;4.95;;;8.70;99.90;;;;;;5091548;28;20424;-78
2023/09/13 02:33:53;;;;;;;7.78;5.20;;;8.80;99.90;;;;;;5072829;28;20606;-79
2023/09/13 02:36:19;;;;;;;9.93;5.43;;;8.70;99.90;;;;;;5091468;28;20027;-78
2023/09/13 02:38:44;;;;;;;10.48;5.53;;;8.70;99.90;;;;;;5091157;28;20058;-78
2023/09/13 02:41:10;;;;;;;13.55;5.65;;;8.70;99.90;;;;;;5091495;28;20059;-78
2023/09/13 02:43:37;;;;;;;8.02;5.38;;;8.80;99.90;;;;;;5090879;28;20118;-78
2023/09/13 02:46:02;;;;;;;8.70;5.53;;;8.70;99.90;;;;;;5091155;28;20598;-78
2023/09/13 02:48:29;;;;;;;5.63;4.82;;;8.70;99.90;;;;;;5090875;28;20028;-79
2023/09/13 02:50:55;;;;;;;10.88;5.47;;;8.70;99.90;;;;;;5090767;28;20525;-79
2023/09/13 02:53:20;;;;;;;9.98;5.68;;;8.70;99.90;;;;;;5090995;28;20054;-78
2023/09/13 02:55:46;;;;;;;8.60;5.25;;;8.70;99.90;;;;;;5072130;28;20050;-79
2023/09/13 02:58:12;;;;;;;11.43;5.97;;;8.60;99.90;;;;;;5090745;28;20469;-79
2023/09/13 03:00:42;;;;;;;7.20;5.63;;;8.60;99.90;;;;;;5071780;28;20449;-79
2023/09/13 03:03:08;;;;;;;6.65;5.28;;;8.60;99.90;;;;;;5090748;28;20047;-78
2023/09/13 03:05:33;;;;;;;7.63;5.38;;;8.60;99.90;;;;;;5072332;28;20111;-77
2023/09/13 03:08:00;;;;;;;9.80;5.68;;;8.60;99.90;;;;;;5090434;28;20020;-77
2023/09/13 03:10:27;;;;;;;9.80;5.50;;;8.70;99.90;;;;;;5090249;28;20097;-77
2023/09/13 03:12:52;;;;;;;8.88;5.90;;;8.60;99.90;;;;;;5090176;28;20036;-77
2023/09/13 03:15:18;;;;;;;9.05;5.50;;;8.60;99.90;;;;;;5090643;28;20024;-77
2023/09/13 03:17:44;;;;;;;8.57;6.80;;;8.50;99.90;;;;;;5090335;28;20028;-78
2023/09/13 03:20:10;;;;;;;8.60;5.60;;;8.50;99.90;;;;;;5090653;28;20373;-78
2023/09/13 03:22:36;;;;;;;9.93;5.28;;;8.50;99.90;;;;;;5090230;28;20048;-78
2023/09/13 03:25:03;;;;;;;6.95;5.07;;;8.40;99.90;;;;;;5090601;28;20295;-77
2023/09/13 03:27:30;;;;;;;8.02;5.32;;;8.50;99.90;;;;;;5090124;28;20463;-77
2023/09/13 03:29:58;;;;;;;9.65;6.03;;;8.50;99.90;;;;;;5089876;28;20020;-76
2023/09/13 03:32:24;;;;;;;9.68;5.60;;;8.40;99.90;;;;;;5090537;28;20059;-77
2023/09/13 03:34:51;;;;;;;7.75;5.07;;;8.40;99.90;;;;;;5089861;28;20040;-77
2023/09/13 03:37:18;;;;;;;10.38;5.70;;;8.50;99.90;;;;;;5090665;28;20020;-77
2023/09/13 03:39:43;;;;;;;8.02;5.60;;;8.50;99.90;;;;;;5089997;28;20412;-77
2023/09/13 03:42:09;;;;;;;8.82;6.18;;;8.50;99.90;;;;;;5092781;28;20020;-77
2023/09/13 03:44:35;;;;;;;9.18;5.70;;;8.50;99.90;;;;;;5094615;28;20044;-77
2023/09/13 03:47:00;;;;;;;7.90;5.07;;;8.50;99.90;;;;;;5093938;28;20044;-77
2023/09/13 03:49:26;;;;;;;9.35;5.70;;;8.40;99.90;;;;;;5094421;28;20149;-77
2023/09/13 03:51:52;;;;;;;11.75;6.05;;;8.40;99.90;;;;;;5093648;28;20484;-77
2023/09/13 03:54:17;;;;;;;8.60;5.68;;;8.40;99.90;;;;;;5076017;28;20060;-77
2023/09/13 03:56:43;;;;;;;9.50;6.05;;;8.30;99.90;;;;;;5093781;28;20144;-77
2023/09/13 03:59:09;;;;;;;8.60;5.55;;;8.30;99.90;;;;;;5094578;28;20307;-76
2023/09/13 04:01:35;;;;;;;12.23;6.72;;;8.30;99.90;;;;;;5075592;28;20119;-76
2023/09/13 04:04:00;;;;;;;8.65;5.80;;;8.30;99.90;;;;;;5093304;28;20032;-77
2023/09/13 04:06:26;;;;;;;8.23;6.22;;;8.20;99.90;;;;;;5093941;28;20042;-76
2023/09/13 04:08:52;;;;;;;9.15;6.35;;;8.20;99.90;;;;;;5093292;28;20038;-77
2023/09/13 04:11:18;;;;;;;8.57;6.32;;;8.30;99.90;;;;;;5093912;28;20036;-76
2023/09/13 04:13:43;;;;;;;10.02;6.43;;;8.30;99.90;;;;;;5093318;28;20028;-77
2023/09/13 04:16:14;;;;;;;9.15;6.45;;;8.20;99.90;;;;;;5075550;28;20595;-78
2023/09/13 04:18:39;;;;;;;7.07;5.75;;;8.30;99.90;;;;;;5093409;28;20036;-78
2023/09/13 04:21:05;;;;;;;9.98;6.53;;;8.30;99.90;;;;;;5093715;28;20028;-77
2023/09/13 04:23:31;;;;;;;9.93;6.18;;;8.30;99.90;;;;;;5093527;28;20476;-78
2023/09/13 04:25:56;;;;;;;9.57;6.32;;;8.30;99.90;;;;;;5093321;28;20307;-77
2023/09/13 04:28:22;;;;;;;9.07;6.28;;;8.30;99.90;;;;;;5093794;28;20165;-78
2023/09/13 04:30:48;;;;;;;7.32;6.20;;;8.30;99.90;;;;;;5093114;28;20056;-78
2023/09/13 04:33:14;;;;;;;10.30;5.85;;;8.30;99.90;;;;;;5093553;28;20031;-78
2023/09/13 04:35:39;;;;;;;9.00;6.80;;;8.30;99.90;;;;;;5093326;28;20354;-77
2023/09/13 04:38:06;;;;;;;7.57;5.90;;;8.30;99.90;;;;;;5093322;28;20028;-78
2023/09/13 04:40:32;;;;;;;7.18;5.82;;;8.30;99.90;;;;;;5093772;28;20042;-78
2023/09/13 04:43:06;;;;;;;8.85;6.05;;;8.20;99.90;;;;;;5092642;28;20395;-77
2023/09/13 04:45:33;;;;;;;9.68;6.50;;;8.30;99.90;;;;;;5093507;28;20020;-78
2023/09/13 04:47:59;;;;;;;9.35;5.75;;;8.20;99.90;;;;;;5092880;28;20084;-77
2023/09/13 04:50:24;;;;;;;8.82;6.30;;;8.20;99.90;;;;;;5093540;28;20035;-77
2023/09/13 04:52:50;;;;;;;10.73;6.60;;;8.20;99.90;;;;;;5092363;28;20135;-77
2023/09/13 04:55:18;;;;;;;11.27;6.47;;;8.30;99.90;;;;;;5093505;28;20416;-77
2023/09/13 04:57:44;;;;;;;11.60;6.57;;;8.30;99.90;;;;;;5074096;28;20044;-77
2023/09/13 05:00:11;;;;;;;10.68;5.88;;;8.30;99.90;;;;;;5093060;28;20478;-76
2023/09/13 05:02:40;;;;;;;8.63;6.28;;;8.30;99.90;;;;;;5093154;28;20114;-78
2023/09/13 05:05:06;;;;;;;8.70;6.38;;;8.30;99.90;;;;;;5092827;28;20024;-77
2023/09/13 05:07:32;;;;;;;10.07;6.28;;;8.20;99.90;;;;;;5093285;28;20038;-77
2023/09/13 05:09:58;;;;;;;9.82;6.40;;;8.20;99.90;;;;;;5092702;28;20443;-77
2023/09/13 05:12:24;;;;;;;9.52;6.80;;;8.20;99.90;;;;;;5093153;28;20028;-77
2023/09/13 05:14:49;;;;;;;11.90;6.60;;;8.20;99.90;;;;;;5092840;28;20352;-78
2023/09/13 05:17:15;;;;;;;11.60;6.35;;;8.10;99.90;;;;;;5093734;28;20028;-78
2023/09/13 05:19:41;;;;;;;11.05;6.18;;;8.10;99.90;;;;;;5093228;28;20085;-77
2023/09/13 05:22:06;;;;;;;11.52;6.40;;;8.20;99.90;;;;;;5092726;28;20020;-78
2023/09/13 05:24:32;;;;;;;9.52;6.35;;;8.20;99.90;;;;;;5092368;28;20419;-78
2023/09/13 05:26:58;;;;;;;8.98;6.35;;;8.20;99.90;;;;;;5092236;28;20028;-77
2023/09/13 05:29:24;;;;;;;9.73;6.65;;;8.20;99.90;;;;;;5074439;28;20161;-77
2023/09/13 05:31:50;;;;;;;9.18;6.50;;;8.20;99.90;;;;;;5092023;28;20035;-78
2023/09/13 05:34:16;;;;;;;9.30;5.97;;;8.20;99.90;;;;;;5092758;28;20085;-78
2023/09/13 05:36:41;;;;;;;10.68;6.10;;;8.20;99.90;;;;;;5092611;28;20035;-77
2023/09/13 05:39:08;;;;;;;8.45;5.85;;;8.20;99.90;;;;;;5092271;28;20033;-77
2023/09/13 05:41:34;;;;;;;9.88;5.80;;;8.10;99.90;;;;;;5092679;28;20103;-78
2023/09/13 05:44:00;;;;;;;8.77;5.60;;;8.20;99.90;;;;;;5091620;28;20115;-78
2023/09/13 05:46:25;;;;;;;7.88;5.65;;;8.20;99.90;;;;;;5091965;28;20135;-79
2023/09/13 05:48:51;;;;;;;8.70;6.60;;;8.20;99.90;;;;;;5073027;28;20024;-77
2023/09/13 05:51:19;;;;;;;9.95;5.93;;;8.20;99.90;;;;;;5092304;28;20039;-78
2023/09/13 05:53:45;;;;;;;14.02;6.75;;;8.20;99.90;;;;;;5091751;28;20040;-78
2023/09/13 05:56:11;;;;;;;9.13;6.15;;;8.20;99.90;;;;;;5092248;28;20028;-78
2023/09/13 05:58:37;;;;;;;9.02;5.82;;;8.20;99.90;;;;;;5092462;28;20070;-78
2023/09/13 06:01:04;;;;;;;11.23;6.60;;;8.20;99.90;;;;;;5091327;28;20028;-78
2023/09/13 06:03:32;;;;;;;9.63;7.25;;;8.20;99.90;;;;;;5092031;28;20043;-78
2023/09/13 06:05:58;;;;;;;10.43;6.90;;;8.10;99.90;;;;;;5073956;28;20024;-78
2023/09/13 06:08:23;;;;;;;16.45;8.57;;;8.20;99.90;;;;;;5094194;28;20031;-78
2023/09/13 06:10:49;;;;;;;11.63;7.00;;;8.20;99.90;;;;;;5094894;28;20032;-77
2023/09/13 06:13:15;;;;;;;10.40;6.70;;;8.20;99.90;;;;;;5094421;28;20036;-78
2023/09/13 06:15:41;;;;;;;12.23;7.82;;;8.20;99.90;;;;;;5092581;28;20362;-78
2023/09/13 06:18:08;;;;;;;10.95;7.95;;;8.30;99.90;;;;;;5091202;28;20123;-77
2023/09/13 06:20:34;;;;;;;9.75;7.40;;;8.30;99.90;;;;;;5091849;28;20107;-78
2023/09/13 06:22:59;;;;;;;11.52;7.15;;;8.20;99.90;;;;;;5091013;28;20454;-78
2023/09/13 06:25:25;;;;;;;9.93;7.53;;;8.30;99.90;;;;;;5091435;28;20043;-78
2023/09/13 06:27:51;;;;;;;13.15;7.28;;;8.30;99.90;;;;;;5073019;28;20421;-78
2023/09/13 06:30:17;;;;;;;10.20;7.50;;;8.30;99.90;;;;;;5090855;28;20020;-78
2023/09/13 06:32:43;;;;;;;8.80;6.65;;;8.40;99.90;;;;;;5091109;28;20027;-77
2023/09/13 06:35:13;;;;;;;12.68;7.03;;;8.50;99.90;;;;;;5090386;28;20095;-77
2023/09/13 06:37:40;;;;;;;12.35;6.80;;;8.50;99.90;;;;;;5091358;28;20024;-77
2023/09/13 06:40:07;;;;;;;18.40;7.07;;;8.60;99.90;;;;;;5090705;28;20385;-77
2023/09/13 06:42:32;;;;;;;11.65;6.53;;;8.70;99.90;;;;;;5091217;28;20495;-77
2023/09/13 06:44:59;;;;;;;8.27;6.40;;;8.70;99.90;;;;;;5090224;28;20024;-77
2023/09/13 06:47:28;;;;;;;6.68;5.03;;;8.70;99.90;;;;;;5090893;28;20048;-77
2023/09/13 06:49:54;;;;;;;8.48;5.65;;;8.90;99.90;;;;;;5090292;28;20024;-77
2023/09/13 06:52:20;;;;;;;8.27;6.15;;;9.00;99.90;;;;;;5090834;28;20546;-78
2023/09/13 06:54:46;;;;;;;9.43;6.47;;;9.20;99.90;;;;;;5091310;28;20032;-78
2023/09/13 06:57:12;;;;;;;9.00;6.05;;;9.30;99.90;;;;;;5090137;28;20031;-77
2023/09/13 06:59:38;;;;;;;9.10;5.40;;;9.40;99.90;;;;;;5090768;28;20457;-76
2023/09/13 07:02:04;;;;;;;7.55;5.60;;;9.50;99.90;;;;;;5090050;28;20048;-77
2023/09/13 07:04:30;;;;;;;9.48;5.20;;;9.50;99.90;;;;;;5090396;28;20071;-78
2023/09/13 07:06:56;;;;;;;8.07;5.50;;;9.60;99.90;;;;;;5090001;28;20127;-77
2023/09/13 07:09:21;;;;;;;9.05;6.47;;;9.60;99.90;;;;;;5090737;28;20513;-77
2023/09/13 07:11:47;;;;;;;7.80;6.05;;;9.80;99.90;;;;;;5090608;28;20128;-77
2023/09/13 07:14:13;;;;;;;13.85;6.32;;;9.80;99.90;;;;;;5089918;28;20422;-77
2023/09/13 07:16:38;;;;;;;11.25;7.78;;;9.90;99.90;;;;;;5071517;28;20020;-78
2023/09/13 07:19:04;;;;;;;6.95;5.97;;;9.90;99.90;;;;;;5089982;28;20103;-78
2023/09/13 07:21:30;;;;;;;12.48;6.85;;;9.90;99.90;;;;;;5090236;28;20046;-78
2023/09/13 07:23:55;;;;;;;10.43;6.72;;;9.90;99.90;;;;;;5089608;28;20044;-78
2023/09/13 07:26:21;;;;;;;10.27;7.70;;;9.90;99.90;;;;;;5090613;28;20026;-78
2023/09/13 07:28:47;;;;;;;9.15;7.05;;;9.90;99.90;;;;;;5090414;28;20465;-78
2023/09/13 07:31:13;;;;;;;10.35;6.78;;;10.10;99.90;;;;;;5071473;28;20039;-78
2023/09/13 07:33:39;;;;;;;9.52;6.65;;;10.20;99.90;;;;;;5090288;28;20035;-77
2023/09/13 07:36:05;;;;;;;9.77;6.68;;;10.30;99.90;;;;;;5089143;28;20441;-77
2023/09/13 07:38:31;;;;;;;9.25;7.15;;;10.30;99.90;;;;;;5090399;28;20024;-77
2023/09/13 07:40:56;;;;;;;8.82;6.75;;;10.40;99.90;;;;;;5089620;28;20086;-78
2023/09/13 07:43:22;;;;;;;9.27;7.40;;;10.40;99.90;;;;;;5089962;28;20092;-78
2023/09/13 07:45:49;;;;;;;14.93;8.75;;;10.40;99.90;;;;;;5090208;28;20054;-78
2023/09/13 07:48:14;;;;;;;17.05;8.25;;;10.50;99.90;;;;;;5089480;28;20113;-78
2023/09/13 07:50:40;;;;;;;11.05;7.25;;;10.50;99.90;;;;;;5090278;28;20066;-78
2023/09/13 07:53:10;;;;;;;9.52;6.70;;;10.60;99.90;;;;;;5089354;28;20405;-78
2023/09/13 07:55:36;;;;;;;12.27;6.13;;;10.60;99.90;;;;;;5089998;28;20028;-78
2023/09/13 07:58:03;;;;;;;10.48;7.15;;;10.80;99.90;;;;;;5089673;28;20028;-78
2023/09/13 08:00:29;;;;;;;8.30;6.07;;;11.00;99.90;;;;;;5090155;28;20020;-78
2023/09/13 08:02:55;;;;;;;7.95;5.55;;;11.10;99.90;;;;;;5088093;28;20043;-78
2023/09/13 08:05:21;;;;;;;9.80;5.40;;;11.30;99.90;;;;;;5090998;28;20465;-78
2023/09/13 08:07:47;;;;;;;8.63;5.07;;;11.50;99.90;;;;;;5090548;28;20027;-78
2023/09/13 08:10:13;;;;;;;7.00;5.00;;;11.60;99.90;;;;;;5089027;28;20173;-78
2023/09/13 08:12:40;;;;;;;8.85;5.25;;;11.70;99.90;;;;;;5071954;28;20028;-78
2023/09/13 08:15:06;;;;;;;9.18;5.07;;;11.80;99.90;;;;;;5089550;28;20089;-77
2023/09/13 08:17:33;;;;;;;7.18;5.10;;;12.00;99.90;;;;;;5090136;28;20024;-78
2023/09/13 08:19:59;;;;;;;8.20;5.30;;;12.20;99.90;;;;;;5089166;28;20427;-77
2023/09/13 08:22:25;;;;;;;8.93;5.20;;;12.30;99.90;;;;;;5089766;28;20025;-76
2023/09/13 08:24:50;;;;;;;9.27;5.25;;;12.30;99.90;;;;;;5089502;28;20112;-77
2023/09/13 08:27:16;;;;;;;10.75;4.90;;;12.40;99.90;;;;;;5089585;28;20350;-78
2023/09/13 08:29:42;;;;;;;9.60;4.32;;;12.40;99.90;;;;;;5075258;28;20115;-77
2023/09/13 08:32:07;;;;;;;8.48;5.00;;;12.60;99.90;;;;;;5093008;28;20016;-79
2023/09/13 08:34:35;;;;;;;8.18;4.30;;;12.70;99.90;;;;;;5094007;28;20055;-79
2023/09/13 08:37:01;;;;;;;8.50;4.78;;;12.70;99.90;;;;;;5091816;28;20024;-79
2023/09/13 08:39:27;;;;;;;5.97;4.20;;;12.90;99.90;;;;;;5092992;28;20020;-78
2023/09/13 08:41:54;;;;;;;10.50;4.90;;;13.00;99.90;;;;;;5075038;28;20131;-78
2023/09/13 08:44:22;;;;;;;8.38;4.80;;;13.10;99.90;;;;;;5093206;28;20028;-77
2023/09/13 08:46:55;;;;;;;6.95;4.45;;;13.10;99.90;;;;;;5092780;28;20046;-77
2023/09/13 08:49:22;;;;;;;9.63;4.22;;;13.20;99.90;;;;;;5093520;28;20024;-77
2023/09/13 08:51:50;;;;;;;9.18;4.68;;;13.30;99.90;;;;;;5092497;28;20024;-77
2023/09/13 08:54:17;;;;;;;9.65;4.30;;;13.60;99.90;;;;;;5092540;28;20535;-78
2023/09/13 08:56:43;;;;;;;12.40;4.43;;;13.60;99.90;;;;;;5093423;28;20545;-77
2023/09/13 08:59:10;;;;;;;10.38;4.55;;;13.60;99.90;;;;;;5092482;28;20464;-77
2023/09/13 09:01:41;;;;;;;7.13;4.18;;;13.80;99.90;;;;;;5092657;28;20453;-77
2023/09/13 09:04:09;;;;;;;9.40;4.80;;;13.80;99.90;;;;;;5092566;28;20123;-77
2023/09/13 09:06:36;;;;;;;9.52;4.13;;;13.90;99.90;;;;;;5091847;28;20028;-77
2023/09/13 09:09:04;;;;;;;11.75;4.18;;;13.90;99.90;;;;;;5091596;28;20035;-77
2023/09/13 09:11:31;;;;;;;7.70;3.90;;;14.00;99.90;;;;;;5092704;28;20048;-77
2023/09/13 09:14:01;;;;;;;6.50;4.10;;;14.10;99.90;;;;;;5092673;28;20075;-77
2023/09/13 09:16:29;;;;;;;9.55;4.10;;;14.20;99.90;;;;;;5092264;28;20043;-77
2023/09/13 09:18:59;;;;;;;5.43;3.60;;;14.10;99.90;;;;;;5092172;28;20097;-77
2023/09/13 09:21:25;;;;;;;7.78;3.72;;;14.20;99.90;;;;;;5092225;28;20044;-77
2023/09/13 09:23:51;;;;;;;6.55;3.00;;;14.20;99.90;;;;;;5092516;28;20112;-77
2023/09/13 09:26:17;;;;;;;7.28;3.20;;;14.30;99.90;;;;;;5091323;28;20024;-77
2023/09/13 09:28:43;;;;;;;5.57;2.63;;;14.40;99.90;;;;;;5092220;28;20426;-77
2023/09/13 09:31:10;;;;;;;7.32;2.90;;;14.50;99.90;;;;;;5091504;28;20384;-77
2023/09/13 09:33:40;;;;;;;5.47;2.22;;;14.60;99.90;;;;;;5092007;28;20097;-77
2023/09/13 09:36:09;;;;;;;4.65;2.65;;;14.70;99.90;;;;;;5091190;28;20073;-77
2023/09/13 09:38:35;;;;;;;6.68;2.45;;;14.90;99.90;;;;;;5091639;28;20122;-77
2023/09/13 09:41:03;;;;;;;7.55;3.00;;;15.00;99.90;;;;;;5091173;28;20291;-78
2023/09/13 09:43:30;;;;;;;5.70;2.55;;;15.10;99.90;;;;;;5092134;28;20410;-78
2023/09/13 09:45:56;;;;;;;7.43;2.85;;;15.20;99.90;;;;;;5091592;28;20465;-78
2023/09/13 09:48:22;;;;;;;6.93;2.33;;;15.30;99.90;;;;;;5092103;28;20063;-78
2023/09/13 09:50:51;;;;;;;7.05;2.65;;;15.30;99.90;;;;;;5091659;28;20020;-77
2023/09/13 09:53:18;;;;;;;12.60;3.00;;;15.40;99.90;;;;;;5091276;28;20036;-76
2023/09/13 09:55:45;;;;;;;8.55;3.40;;;15.50;99.90;;;;;;5092067;28;20170;-77
2023/09/13 09:58:11;;;;;;;9.98;3.40;;;15.40;99.90;;;;;;5073171;28;20055;-77
2023/09/13 10:00:52;;;;;;;9.23;3.53;;;15.50;99.90;;;;;;5091222;28;20024;-77
2023/09/13 10:03:19;;;;;;;6.88;2.60;;;15.70;99.90;;;;;;5091274;28;20040;-77
2023/09/13 10:06:03;;;;;;;6.97;3.25;;;15.80;99.90;;;;;;5091971;28;20127;-77
2023/09/13 10:08:43;;;;;;;11.88;3.72;;;15.90;99.90;;;;;;5091920;28;20052;-77
2023/09/13 10:11:17;;;;;;;9.68;3.97;;;16.00;99.90;;;;;;5091112;28;20126;-77
2023/09/13 10:13:46;;;;;;;14.95;4.00;;;16.10;99.90;;;;;;5090905;28;20508;-77
2023/09/13 10:16:14;;;;;;;9.80;3.42;;;16.20;99.90;;;;;;5070577;28;20020;-76
2023/09/13 10:18:51;;;;;;;7.32;2.90;;;16.20;99.90;;;;;;5090979;28;20028;-76
2023/09/13 10:21:26;;;;;;;6.75;2.65;;;16.20;99.90;;;;;;5091159;28;20024;-78
2023/09/13 10:24:06;;;;;;;6.18;2.53;;;16.30;99.90;;;;;;5090600;28;20077;-77
2023/09/13 10:26:33;;;;;;;6.50;2.42;;;16.40;99.90;;;;;;5072936;28;20511;-78
2023/09/13 10:29:10;;;;;;;5.22;2.30;;;16.40;99.90;;;;;;5090797;28;20028;-78
2023/09/13 10:31:41;;;;;;;4.95;2.17;;;16.40;99.90;;;;;;5090742;28;20055;-78
2023/09/13 10:34:13;;;;;;;3.88;2.22;;;16.60;99.90;;;;;;5090033;28;20028;-78
2023/09/13 10:36:45;;;;;;;3.72;2.25;;;16.70;99.90;;;;;;5090831;28;20031;-78
2023/09/13 10:39:17;;;;;;;4.75;2.55;;;16.80;99.90;;;;;;5090129;28;20085;-78
2023/09/13 10:42:13;;;;;;;4.10;2.45;;;16.90;99.90;;;;;;5090542;28;20024;-77
2023/09/13 10:44:40;;;;;;;7.78;2.88;;;16.90;99.90;;;;;;5078549;28;20126;-78
2023/09/13 10:47:07;;;;;;;7.60;2.65;;;16.90;99.90;;;;;;5089809;28;20052;-78
2023/09/13 10:49:36;;;;;;;8.77;2.10;;;16.90;99.90;;;;;;5090378;28;20032;-77
2023/09/13 10:52:02;;;;;;;5.57;2.15;;;16.90;99.90;;;;;;5090489;28;20024;-78
2023/09/13 10:54:30;;;;;;;5.32;2.05;;;16.90;99.90;;;;;;5091260;28;20036;-78
2023/09/13 10:56:56;;;;;;;4.47;2.20;;;16.90;99.90;;;;;;5090822;28;20116;-79
2023/09/13 10:59:23;;;;;;;7.05;2.55;;;16.90;99.90;;;;;;5090701;28;20123;-77
2023/09/13 11:01:49;;;;;;;4.43;2.22;;;16.90;99.90;;;;;;5092500;28;20096;-77
2023/09/13 11:04:17;;;;;;;6.05;2.30;;;16.80;99.90;;;;;;5090800;28;20093;-77
2023/09/13 11:06:44;;;;;;;7.35;2.45;;;16.80;99.90;;;;;;5091085;28;20099;-77
2023/09/13 11:09:17;;;;;;;11.48;2.78;;;16.70;99.90;;;;;;5090872;28;20043;-77
2023/09/13 11:11:47;;;;;;;3.83;2.10;;;16.80;99.90;;;;;;5090994;28;20366;-78
2023/09/13 11:14:18;;;;;;;5.97;2.22;;;16.70;99.90;;;;;;5090927;28;20102;-78
2023/09/13 11:16:46;;;;;;;6.32;2.60;;;16.70;99.90;;;;;;5093143;28;20024;-78
2023/09/13 11:19:13;;;;;;;5.88;2.35;;;16.70;99.90;;;;;;5093627;28;20035;-78
2023/09/13 11:21:54;;;;;;;5.78;2.30;;;16.80;99.90;;;;;;5093980;28;20032;-78
2023/09/13 11:24:35;;;;;;;8.65;2.63;;;16.80;99.90;;;;;;5091880;28;20388;-78
2023/09/13 11:27:15;;;;;;;4.05;1.88;;;16.90;99.90;;;;;;5092331;28;20055;-78
2023/09/13 11:29:45;;;;;;;5.57;2.20;;;16.90;99.90;;;;;;5092599;28;20024;-77
2023/09/13 11:32:18;;;;;;;8.23;3.38;;;16.90;99.90;;;;;;5091807;28;20037;-78
2023/09/13 11:34:45;;;;;;;6.05;2.10;;;16.90;99.90;;;;;;5091119;28;20024;-77
2023/09/13 11:37:12;;;;;;;6.50;2.08;;;16.80;99.90;;;;;;5089670;28;20028;-77
2023/09/13 11:39:39;;;;;;;9.07;2.25;;;16.70;99.90;;;;;;5090412;28;20035;-78
2023/09/13 11:42:09;;;;;;;5.43;2.55;;;16.70;99.90;;;;;;5089754;28;20058;-78
2023/09/13 11:44:37;;;;;;;7.00;2.30;;;16.70;99.90;;;;;;5090663;28;20092;-78
2023/09/13 11:47:03;;;;;;;8.93;2.47;;;16.80;99.90;;;;;;5089739;28;20048;-78
2023/09/13 11:49:30;;;;;;;4.93;2.25;;;16.90;99.90;;;;;;5090123;28;20058;-78
2023/09/13 11:51:59;;;;;;;5.70;2.10;;;17.00;99.90;;;;;;5090322;28;20080;-78
2023/09/13 11:54:26;;;;;;;6.25;2.60;;;17.30;99.90;;;;;;5089723;28;20099;-78
2023/09/13 11:56:55;;;;;;;5.63;2.40;;;17.40;99.90;;;;;;5090271;28;20025;-78
2023/09/13 11:59:31;;;;;;;8.93;2.70;;;17.60;99.90;;;;;;5089474;28;20028;-78
2023/09/13 12:01:57;;;;;;;7.18;2.53;;;17.80;99.90;;;;;;5090123;28;20025;-77
2023/09/13 12:04:26;;;;;;;5.53;2.05;;;18.00;99.90;;;;;;5092869;28;20040;-77
2023/09/13 12:06:54;;;;;;;4.82;2.38;;;18.10;99.90;;;;;;5094097;28;20030;-77
2023/09/13 12:09:21;;;;;;;10.30;2.45;;;18.10;99.90;;;;;;5093151;28;20107;-76
2023/09/13 12:11:50;;;;;;;5.75;2.30;;;18.10;99.90;;;;;;5093946;28;20032;-78
2023/09/13 12:14:21;;;;;;;5.47;2.08;;;18.20;99.90;;;;;;5093317;28;20331;-79
2023/09/13 12:16:50;;;;;;;7.55;2.70;;;18.20;99.90;;;;;;5094107;28;20039;-78
2023/09/13 12:19:16;;;;;;;6.25;2.58;;;18.10;99.90;;;;;;5092714;28;20475;-77
2023/09/13 12:21:46;;;;;;;5.18;2.10;;;18.10;99.90;;;;;;5093743;28;20351;-77
2023/09/13 12:24:19;;;;;;;4.93;2.28;;;18.10;99.90;;;;;;5092370;28;20449;-77
2023/09/13 12:26:44;;;;;;;6.63;2.25;;;18.10;99.90;;;;;;5093282;28;20111;-77
2023/09/13 12:29:10;;;;;;;4.82;2.50;;;18.00;99.90;;;;;;5092510;28;20107;-77
2023/09/13 12:31:36;;;;;;;4.45;1.90;;;18.00;99.90;;;;;;5093151;28;20431;-78
2023/09/13 12:34:04;;;;;;;3.50;2.38;;;18.10;99.90;;;;;;5093261;28;20483;-77
2023/09/13 12:36:31;;;;;;;3.28;2.33;;;18.10;99.90;;;;;;5092772;28;20161;-77
2023/09/13 12:38:59;;;;;;;5.70;2.65;;;18.20;99.90;;;;;;5091971;28;20055;-77
2023/09/13 12:41:30;;;;;;;3.75;2.03;;;18.20;99.90;;;;;;5093180;28;20460;-77
2023/09/13 12:43:57;;;;;;;6.93;2.95;;;18.20;99.90;;;;;;5093074;28;20540;-77
2023/09/13 12:46:25;;;;;;;3.90;2.35;;;18.30;99.90;;;;;;5092118;28;20056;-77
2023/09/13 12:48:53;;;;;;;4.80;2.92;;;18.40;99.90;;;;;;5092859;28;20055;-77
2023/09/13 12:51:29;;;;;;;8.25;3.30;;;18.40;99.90;;;;;;5074048;28;20050;-76